Terminal Aerodrome Forecast
Issued by NWS

Home | Current Version | Previous Version | Text Only | Print | Product List | Glossary On
Versions: 1 2 3 4 5 6 7 8 9 10 11 12
000
FTUS45 KTFX 190500
TAFCTB
TAF
KCTB 190520Z 1906/2006 25010KT P6SM BKN120
     FM191500 28018G25KT P6SM BKN120
     FM200200 26012KT P6SM BKN150=

USA.gov is the U.S. government's official web portal to all federal, state and local government web resources and services.